Time;durP1;ratioP1;P1;durP2;ratioP2;P2;SDS_P1;SDS_P2;PMS_P1;PMS_P2;Temp;Humidity;BMP_temperature;BMP_pressure;BME280_temperature;BME280_humidity;BME280_pressure;Samples;Min_cycle;Max_cycle;Signal;HPM_P1;HPM_P2
2022/08/22 00:00:22;;;;;;;;;;;20.30;50.90;;;18.47;54.46;101228.75;12245874;19;19990;-85
2022/08/22 00:04:33;;;;;;;;;;;20.30;51.00;;;18.31;54.34;101213.28;12244894;19;19917;-86
2022/08/22 00:09:00;;;;;;;;;;;20.30;50.90;;;18.52;54.63;101242.47;12241690;19;20334;-84
2022/08/22 00:13:27;;;;;;;;;;;20.30;50.90;;;18.40;54.33;101227.56;12238620;19;19929;-85
2022/08/22 00:17:56;;;;;;;;;;;20.20;50.90;;;18.40;54.41;101234.66;12243346;19;19927;-86
2022/08/22 00:22:21;;;;;;;;;;;20.20;50.90;;;18.13;54.63;101199.72;12240287;19;19965;-84
2022/08/22 00:26:41;;;;;;;;;;;20.10;50.90;;;18.29;54.61;101230.22;12243610;19;19983;-84
2022/08/22 00:31:06;;;;;;;;;;;20.30;51.00;;;18.29;54.76;101246.09;12241896;19;20365;-86
2022/08/22 00:35:27;;;;;;;;;;;20.00;50.80;;;18.27;54.65;101251.50;12241084;19;20581;-85
2022/08/22 00:40:28;;;;;;;;;;;20.00;50.90;;;18.16;54.52;101240.09;12243656;19;20328;-86
2022/08/22 00:44:57;;;;;;;;;;;20.00;50.90;;;18.12;54.57;101245.63;12238726;19;19911;-87
2022/08/22 00:49:17;;;;;;;;;;;20.20;51.00;;;18.11;54.68;101243.09;12242586;19;19914;-85
2022/08/22 00:53:44;;;;;;;;;;;19.90;50.90;;;18.06;54.88;101251.38;12253268;19;19915;-87
2022/08/22 00:58:01;;;;;;;;;;;19.90;51.00;;;18.03;54.82;101237.56;12255299;19;19919;-85
2022/08/22 01:02:32;;;;;;;;;;;19.80;50.90;;;17.89;54.94;101222.78;12251967;19;19931;-86
2022/08/22 01:06:46;;;;;;;;;;;19.80;50.90;;;17.84;55.12;101223.16;12252836;19;19921;-86
2022/08/22 01:10:57;;;;;;;;;;;19.80;50.90;;;17.87;55.02;101240.56;12250883;19;19926;-85
2022/08/22 01:15:04;;;;;;;;;;;19.70;50.90;;;17.62;54.96;101207.25;12249428;19;19919;-85
2022/08/22 01:19:43;;;;;;;;;;;19.60;50.90;;;17.78;55.00;101246.53;12253982;19;19919;-85
2022/08/22 01:24:06;;;;;;;;;;;19.60;50.90;;;17.74;54.91;101245.06;12251080;19;19982;-86
2022/08/22 01:28:53;;;;;;;;;;;19.50;51.00;;;17.58;55.00;101241.00;12252572;19;19915;-85
2022/08/22 01:33:45;;;;;;;;;;;19.50;51.00;;;17.61;54.85;101261.06;12243760;19;19952;-85
2022/08/22 01:38:05;;;;;;;;;;;19.40;51.00;;;17.52;54.86;101245.88;12253060;19;19935;-86
2022/08/22 01:42:33;;;;;;;;;;;19.40;51.00;;;17.50;55.24;101253.06;12247817;19;19926;-85
2022/08/22 01:46:56;;;;;;;;;;;19.40;51.10;;;17.57;55.06;101265.69;12253478;19;19911;-86
2022/08/22 01:51:25;;;;;;;;;;;19.40;51.20;;;17.59;55.09;101271.72;12250969;19;19930;-86
2022/08/22 01:55:45;;;;;;;;;;;19.40;51.30;;;17.62;55.06;101262.72;12245350;19;19911;-85
2022/08/22 01:59:51;;;;;;;;;;;19.30;51.30;;;17.57;55.23;101249.84;12250337;19;19953;-86
2022/08/22 02:04:08;;;;;;;;;;;19.40;51.40;;;17.66;55.07;101264.16;12250158;19;20329;-85
2022/08/22 02:08:47;;;;;;;;;;;19.40;51.40;;;17.65;55.33;101268.59;12250369;19;19911;-85
2022/08/22 02:13:01;;;;;;;;;;;19.40;51.50;;;17.58;55.23;101251.56;12247624;19;19930;-86
2022/08/22 02:17:27;;;;;;;;;;;19.40;51.50;;;17.66;55.27;101259.75;12252106;19;19943;-85
2022/08/22 02:21:41;;;;;;;;;;;19.40;51.50;;;17.57;55.00;101249.84;12246277;19;19918;-85
2022/08/22 02:25:59;;;;;;;;;;;19.40;51.50;;;17.52;55.30;101246.72;12250405;19;20089;-85
2022/08/22 02:30:11;;;;;;;;;;;19.40;51.40;;;17.56;55.32;101255.28;12249580;19;19918;-85
2022/08/22 02:35:08;;;;;;;;;;;19.40;51.30;;;17.61;55.42;101271.63;12246741;19;20232;-86
2022/08/22 02:39:35;;;;;;;;;;;19.40;51.30;;;17.55;55.08;101269.41;12246739;19;19911;-85
2022/08/22 02:43:49;;;;;;;;;;;19.40;51.30;;;17.50;55.13;101269.78;12249766;19;19923;-85
2022/08/22 02:48:18;;;;;;;;;;;19.30;51.50;;;17.37;55.18;101253.19;12250680;19;19915;-85
2022/08/22 02:52:27;;;;;;;;;;;19.30;51.20;;;17.38;55.12;101260.97;12244677;19;19919;-85
2022/08/22 02:56:34;;;;;;;;;;;19.20;51.20;;;17.21;55.17;101243.78;12249020;19;20241;-85
2022/08/22 03:00:48;;;;;;;;;;;19.20;51.20;;;17.30;55.51;101252.78;12246877;19;19960;-87
2022/08/22 03:05:14;;;;;;;;;;;19.10;51.30;;;17.21;55.50;101242.94;12246116;19;20378;-87
2022/08/22 03:09:28;;;;;;;;;;;19.10;51.30;;;17.31;55.30;101258.91;12245306;19;19922;-89
2022/08/22 03:13:49;;;;;;;;;;;19.10;51.40;;;17.32;55.26;101258.81;12241800;19;19927;-86
2022/08/22 03:18:12;;;;;;;;;;;19.10;51.40;;;17.31;55.57;101254.50;12246216;19;19986;-87
2022/08/22 03:22:42;;;;;;;;;;;19.10;51.40;;;17.31;55.39;101256.25;12244112;19;19926;-85
2022/08/22 03:26:55;;;;;;;;;;;19.10;51.40;;;17.28;55.26;101259.97;12247321;19;19923;-87
2022/08/22 03:31:17;;;;;;;;;;;19.10;51.40;;;17.13;55.53;101237.38;12244724;19;19914;-86
2022/08/22 03:35:31;;;;;;;;;;;19.10;51.40;;;17.25;55.52;101260.22;12244007;19;19922;-86
2022/08/22 03:39:50;;;;;;;;;;;19.10;51.40;;;17.20;55.32;101262.34;12246637;19;19926;-86
2022/08/22 03:44:10;;;;;;;;;;;19.10;51.30;;;17.15;55.46;101259.25;12245414;19;19911;-87
2022/08/22 03:48:27;;;;;;;;;;;19.00;51.30;;;17.10;55.47;101259.56;12247559;19;19930;-86
2022/08/22 03:53:18;;;;;;;;;;;19.00;51.30;;;17.07;55.47;101262.44;12242272;19;20348;-86
2022/08/22 03:57:40;;;;;;;;;;;18.90;51.30;;;16.66;55.33;101204.75;12246769;19;19922;-86
2022/08/22 04:01:48;;;;;;;;;;;18.90;51.40;;;17.01;55.61;101276.94;12248682;19;19919;-86
2022/08/22 04:06:09;;;;;;;;;;;18.90;51.30;;;16.89;55.66;101255.88;12249377;19;19915;-86
2022/08/22 04:10:21;;;;;;;;;;;18.80;51.40;;;16.89;55.57;101258.50;12246142;19;19911;-86
2022/08/22 04:14:45;;;;;;;;;;;18.90;51.40;;;16.99;55.63;101284.09;12246620;19;19923;-86
2022/08/22 04:19:11;;;;;;;;;;;18.80;51.40;;;17.01;55.61;101283.97;12248292;19;19923;-86
2022/08/22 04:23:48;;;;;;;;;;;18.80;51.60;;;16.81;55.62;101248.50;12248718;19;19914;-86
2022/08/22 04:27:58;;;;;;;;;;;18.90;51.70;;;17.04;55.75;101286.41;12260954;19;20360;-86
2022/08/22 04:32:07;;;;;;;;;;;18.80;51.60;;;16.95;55.89;101268.59;12256091;19;19936;-86
2022/08/22 04:36:18;;;;;;;;;;;18.80;51.70;;;17.08;55.63;101293.13;12255168;19;19942;-86
2022/08/22 04:40:38;;;;;;;;;;;19.10;51.90;;;16.98;55.83;101276.28;12257463;19;19930;-86
2022/08/22 04:44:52;;;;;;;;;;;19.00;51.80;;;16.95;56.00;101268.59;12258672;19;19998;-86
2022/08/22 04:49:05;;;;;;;;;;;18.90;51.80;;;17.15;55.82;101297.03;12259023;19;19918;-85
2022/08/22 04:53:22;;;;;;;;;;;18.90;52.00;;;17.15;55.73;101293.53;12254019;19;19926;-86
2022/08/22 04:57:44;;;;;;;;;;;19.00;52.00;;;17.21;55.93;101296.56;12256577;19;19915;-86
2022/08/22 05:01:59;;;;;;;;;;;19.00;52.00;;;17.14;55.80;101283.94;12252933;19;19922;-86
2022/08/22 05:06:02;;;;;;;;;;;19.20;52.10;;;17.21;55.77;101298.38;12258652;19;20317;-86
2022/08/22 05:10:16;;;;;;;;;;;19.00;52.00;;;17.19;55.71;101301.09;12256357;19;19943;-86
2022/08/22 05:14:24;;;;;;;;;;;19.10;52.00;;;17.22;55.71;101303.50;12254694;19;19982;-86
2022/08/22 05:18:29;;;;;;;;;;;19.00;52.00;;;17.11;55.61;101289.44;12257261;19;19978;-86
2022/08/22 05:22:34;;;;;;;;;;;19.00;52.10;;;17.11;55.83;101287.63;12249941;19;19926;-86
2022/08/22 05:26:47;;;;;;;;;;;19.10;52.10;;;17.18;55.93;101307.34;12256487;19;19914;-87
2022/08/22 05:30:49;;;;;;;;;;;19.40;52.30;;;17.14;55.80;101305.88;12253564;19;19932;-86
2022/08/22 05:34:54;;;;;;;;;;;19.10;52.20;;;16.93;55.75;101289.84;12253069;19;19914;-86
2022/08/22 05:38:59;;;;;;;;;;;19.10;52.30;;;16.79;55.78;101261.81;12252442;19;19919;-86
2022/08/22 05:43:01;;;;;;;;;;;19.10;52.40;;;17.17;55.90;101320.66;12248651;19;20256;-88
2022/08/22 05:47:11;;;;;;;;;;;19.00;52.40;;;17.23;56.17;101315.78;12256211;19;19934;-86
2022/08/22 05:51:20;;;;;;;;;;;19.20;52.60;;;17.43;56.28;101331.94;12253838;19;20334;-88
2022/08/22 05:56:04;;;;;;;;;;;19.20;52.70;;;17.50;56.26;101316.44;12253669;19;19935;-86
2022/08/22 06:00:10;;;;;;;;;;;19.20;52.90;;;17.57;56.21;101329.09;12254499;19;20263;-87
2022/08/22 06:04:35;;;;;;;;;;;19.40;53.00;;;17.80;56.29;101347.69;12258024;19;20341;-87
2022/08/22 06:08:40;;;;;;;;;;;19.50;53.20;;;17.53;56.11;101287.19;12256635;19;19915;-87
2022/08/22 06:13:07;;;;;;;;;;;19.90;53.40;;;17.72;56.13;101300.69;12249338;19;20273;-88
2022/08/22 06:17:14;;;;;;;;;;;19.70;53.30;;;18.03;56.35;101335.34;12257240;19;19903;-86
2022/08/22 06:21:21;;;;;;;;;;;19.80;53.30;;;18.24;56.17;101354.00;12251675;19;19919;-88
2022/08/22 06:25:26;;;;;;;;;;;19.90;53.40;;;18.19;56.37;101329.72;12257023;19;19989;-87
2022/08/22 06:29:33;;;;;;;;;;;20.40;53.70;;;18.34;56.16;101325.91;12259089;19;20073;-87
2022/08/22 06:33:38;;;;;;;;;;;20.10;53.60;;;18.25;56.10;101305.44;12256815;19;19914;-88
2022/08/22 06:37:44;;;;;;;;;;;20.20;53.60;;;18.65;56.28;101352.56;12257029;19;19915;-85
2022/08/22 06:42:01;;;;;;;;;;;20.40;53.70;;;18.79;56.63;101352.31;12247181;19;19915;-87
2022/08/22 06:46:05;;;;;;;;;;;20.40;53.80;;;18.87;56.37;101354.38;12250552;19;19907;-86
2022/08/22 06:50:13;;;;;;;;;;;20.60;53.90;;;18.98;56.25;101355.22;12249052;19;19925;-86
2022/08/22 06:54:21;;;;;;;;;;;20.70;53.90;;;19.09;56.56;101354.34;12248458;19;20315;-87
2022/08/22 06:58:33;;;;;;;;;;;20.80;53.90;;;19.30;56.53;101375.56;12248220;19;19922;-86
2022/08/22 07:03:10;;;;;;;;;;;20.90;54.00;;;19.36;56.71;101356.53;12244609;19;19911;-87
2022/08/22 07:07:16;;;;;;;;;;;21.00;54.10;;;19.53;56.74;101367.53;12247636;19;20334;-87
2022/08/22 07:11:31;;;;;;;;;;;21.40;54.30;;;19.68;56.61;101379.53;12244890;19;19919;-87
2022/08/22 07:15:35;;;;;;;;;;;21.30;54.10;;;19.17;56.55;101275.13;12245326;19;19910;-88
2022/08/22 07:19:44;;;;;;;;;;;21.40;54.10;;;19.84;56.33;101366.66;12247742;19;19911;-87
2022/08/22 07:23:47;;;;;;;;;;;21.60;54.30;;;19.93;56.76;101356.25;12245922;19;19929;-88
2022/08/22 07:28:12;;;;;;;;;;;21.60;54.10;;;19.99;56.74;101347.81;12242012;19;19911;-88
2022/08/22 07:32:40;;;;;;;;;;;21.80;54.20;;;20.29;56.79;101374.34;12245122;19;19910;-86
2022/08/22 07:36:53;;;;;;;;;;;21.90;54.10;;;20.42;56.88;101375.97;12246782;19;19939;-86
2022/08/22 07:41:07;;;;;;;;;;;22.00;54.10;;;20.47;56.64;101366.63;12244860;19;19922;-88
2022/08/22 07:45:36;;;;;;;;;;;22.20;54.10;;;20.54;56.48;101353.69;12248951;19;20261;-86
2022/08/22 07:49:49;;;;;;;;;;;22.30;54.00;;;20.62;56.49;101339.75;12248061;19;20322;-87
2022/08/22 07:54:01;;;;;;;;;;;22.40;54.00;;;20.89;56.73;101363.00;12242563;19;21399;-86
2022/08/22 07:58:06;;;;;;;;;;;22.60;54.10;;;20.96;56.79;101356.19;12247906;19;19921;-87
2022/08/22 08:02:11;;;;;;;;;;;22.60;54.00;;;21.24;56.93;101380.25;12268873;19;19925;-86
2022/08/22 08:06:12;;;;;;;;;;;22.80;54.00;;;21.36;56.71;101384.47;12269640;19;19957;-88
2022/08/22 08:10:20;;;;;;;;;;;22.90;54.00;;;21.46;56.41;101372.06;12269667;19;19926;-86
2022/08/22 08:14:22;;;;;;;;;;;23.10;54.00;;;21.24;56.48;101320.00;12266145;19;19974;-86
2022/08/22 08:18:26;;;;;;;;;;;23.20;53.90;;;21.76;56.36;101383.50;12267728;19;19919;-86
2022/08/22 08:22:28;;;;;;;;;;;23.30;53.90;;;21.75;56.75;101358.75;12266586;19;19926;-87
2022/08/22 08:28:32;;;;;;;;;;;23.40;53.80;;;22.02;56.79;101386.41;12269736;19;19910;-86
2022/08/22 08:31:30;;;;;;;;;;;23.60;53.70;;;22.14;56.25;101377.28;12265071;19;19940;-87
2022/08/22 08:35:37;;;;;;;;;;;23.70;53.60;;;22.21;56.61;101374.94;12265736;19;20341;-87
2022/08/22 08:39:52;;;;;;;;;;;23.80;53.40;;;22.28;56.62;101376.88;12267810;19;19923;-86
2022/08/22 08:44:21;;;;;;;;;;;23.90;53.30;;;22.48;56.50;101382.13;12267234;19;20297;-86
2022/08/22 08:48:51;;;;;;;;;;;24.00;53.10;;;22.59;56.14;101375.75;12266446;19;19948;-87
2022/08/22 08:53:14;;;;;;;;;;;24.10;53.10;;;22.70;56.36;101370.25;12262790;19;20260;-86
2022/08/22 08:57:37;;;;;;;;;;;24.30;52.90;;;22.83;56.37;101372.56;12269083;19;19953;-87
2022/08/22 09:02:05;;;;;;;;;;;24.30;52.90;;;22.94;55.98;101372.34;12266578;19;19903;-86
2022/08/22 09:06:34;;;;;;;;;;;24.50;52.80;;;23.04;56.06;101373.16;12268345;19;19919;-87
2022/08/22 09:11:03;;;;;;;;;;;24.60;52.70;;;23.17;56.15;101372.81;12262133;19;19919;-87
2022/08/22 09:15:18;;;;;;;;;;;24.70;52.60;;;23.29;55.79;101381.41;12253783;19;20061;-88
2022/08/22 09:19:31;;;;;;;;;;;24.80;52.30;;;23.37;55.84;101378.81;12258542;19;19910;-86
2022/08/22 09:24:10;;;;;;;;;;;24.90;52.10;;;23.45;55.98;101384.22;12255292;19;19982;-86
2022/08/22 09:28:42;;;;;;;;;;;25.00;52.20;;;23.49;55.96;101372.25;12256956;19;20322;-87
2022/08/22 09:32:54;;;;;;;;;;;25.10;51.20;;;23.49;55.60;101360.75;12249607;19;19918;-89
2022/08/22 09:37:25;;;;;;;;;;;25.10;51.90;;;23.60;55.36;101366.69;12253056;19;19929;-86
2022/08/22 09:41:57;;;;;;;;;;;25.20;51.80;;;23.77;55.65;101389.03;12252838;19;19918;-85
2022/08/22 09:46:20;;;;;;;;;;;25.30;51.40;;;23.88;55.11;101387.94;12253633;19;19926;-86
2022/08/22 09:50:31;;;;;;;;;;;25.40;51.60;;;23.92;55.45;101377.78;12255019;19;19915;-87
2022/08/22 09:54:47;;;;;;;;;;;25.50;51.70;;;24.03;55.30;101377.53;12252787;19;19919;-86
2022/08/22 09:59:21;;;;;;;;;;;25.60;51.20;;;24.17;55.08;101387.66;12254710;19;19936;-87
2022/08/22 10:03:53;;;;;;;;;;;25.70;50.70;;;24.22;54.74;101388.03;12254346;19;21358;-87
2022/08/22 10:08:17;;;;;;;;;;;25.70;50.80;;;24.19;55.08;101361.63;12253329;19;19919;-87
2022/08/22 10:12:26;;;;;;;;;;;25.80;51.10;;;24.03;55.08;101321.50;12253857;19;19911;-87
2022/08/22 10:16:46;;;;;;;;;;;25.90;51.10;;;24.42;54.77;101375.28;12252013;19;20344;-88
2022/08/22 10:21:05;;;;;;;;;;;25.90;50.80;;;24.38;54.81;101363.22;12258935;19;19914;-87
2022/08/22 10:25:28;;;;;;;;;;;26.00;51.00;;;24.60;54.80;101382.38;12258540;19;19936;-86
2022/08/22 10:29:54;;;;;;;;;;;26.10;51.00;;;24.65;54.39;101390.75;12256485;19;19950;-86
2022/08/22 10:34:18;;;;;;;;;;;26.10;50.30;;;24.65;54.59;101386.22;12255715;19;19953;-88
2022/08/22 10:38:27;;;;;;;;;;;26.20;49.70;;;24.70;54.44;101391.94;12256737;19;19919;-88
2022/08/22 10:42:32;;;;;;;;;;;26.20;50.20;;;24.66;54.56;101377.25;12252207;19;20263;-86
2022/08/22 10:46:37;;;;;;;;;;;26.30;50.10;;;24.77;54.42;101384.13;12256094;19;19906;-88
2022/08/22 10:50:46;;;;;;;;;;;26.30;50.50;;;24.75;54.42;101380.78;12251327;19;20002;-86
2022/08/22 10:55:04;;;;;;;;;;;26.30;49.80;;;24.78;54.43;101374.28;12250882;19;19923;-86
2022/08/22 10:59:30;;;;;;;;;;;26.40;49.20;;;24.89;54.14;101379.31;12253062;19;19919;-86
2022/08/22 11:03:47;;;;;;;;;;;26.40;50.40;;;24.94;53.98;101380.50;12252720;19;19921;-86
2022/08/22 11:08:07;;;;;;;;;;;26.60;50.60;;;24.54;54.05;101314.41;12255179;19;19923;-86
2022/08/22 11:12:33;;;;;;;;;;;26.50;50.10;;;25.03;53.71;101373.31;12250403;19;19922;-86
2022/08/22 11:16:59;;;;;;;;;;;26.60;49.90;;;25.09;53.65;101383.38;12250721;19;19978;-85
2022/08/22 11:21:30;;;;;;;;;;;26.60;49.80;;;25.06;53.75;101365.00;12251588;19;19970;-87
2022/08/22 11:25:54;;;;;;;;;;;26.60;49.50;;;25.23;53.38;101383.78;12253647;19;19918;-85
2022/08/22 11:30:34;;;;;;;;;;;26.70;50.00;;;25.14;53.25;101364.16;12254173;19;20007;-85
2022/08/22 11:34:43;;;;;;;;;;;26.70;49.90;;;25.23;53.84;101367.75;12242287;19;19926;-86
2022/08/22 11:39:05;;;;;;;;;;;26.80;49.50;;;25.35;53.55;101385.13;12246794;19;19915;-86
2022/08/22 11:43:33;;;;;;;;;;;26.80;48.90;;;25.44;53.38;101377.94;12244051;19;19943;-87
2022/08/22 11:47:44;;;;;;;;;;;26.90;49.50;;;25.56;53.11;101381.97;12245251;19;19935;-86
2022/08/22 11:52:04;;;;;;;;;;;27.00;50.00;;;25.66;53.16;101365.75;12243750;19;19960;-84
2022/08/22 11:56:20;;;;;;;;;;;27.10;49.40;;;25.88;53.07;101377.66;12246044;19;19918;-86
2022/08/22 12:00:27;;;;;;;;;;;27.30;50.00;;;25.95;52.85;101374.13;12242541;19;19926;-85
2022/08/22 12:04:32;;;;;;;;;;;27.40;49.60;;;26.02;52.71;101369.75;12247109;19;19915;-85
2022/08/22 12:08:39;;;;;;;;;;;27.40;48.10;;;26.10;52.63;101371.56;12243957;19;19910;-86
2022/08/22 12:12:54;;;;;;;;;;;27.50;46.50;;;26.09;51.95;101367.25;12233481;19;19927;-86
2022/08/22 12:17:27;;;;;;;;;;;27.60;49.80;;;26.07;52.48;101371.09;12244488;19;19927;-86
2022/08/22 12:21:51;;;;;;;;;;;27.60;49.40;;;26.07;52.34;101371.91;12236757;19;20261;-85
2022/08/22 12:26:13;;;;;;;;;;;27.60;49.10;;;26.11;52.52;101364.38;12242130;19;20379;-86
2022/08/22 12:30:24;;;;;;;;;;;27.60;48.50;;;25.78;52.13;101313.56;12238533;19;19955;-86
2022/08/22 12:35:11;;;;;;;;;;;27.60;48.30;;;26.09;52.36;101361.06;12240177;19;19930;-85
2022/08/22 12:39:27;;;;;;;;;;;27.60;48.40;;;26.09;52.53;101359.22;12238065;19;19930;-87
2022/08/22 12:43:39;;;;;;;;;;;27.60;48.90;;;26.03;52.36;101336.63;12242181;19;20370;-89
2022/08/22 12:48:10;;;;;;;;;;;27.60;48.30;;;26.13;51.90;101343.63;12250143;19;19974;-87
2022/08/22 12:52:21;;;;;;;;;;;27.60;47.90;;;26.12;51.76;101342.78;12247554;19;19926;-89
2022/08/22 12:56:37;;;;;;;;;;;27.60;48.20;;;26.13;51.51;101343.63;12247739;19;19941;-85
2022/08/22 13:00:43;;;;;;;;;;;27.60;48.50;;;26.10;51.57;101333.25;12250768;19;19949;-85
2022/08/22 13:05:00;;;;;;;;;;;27.70;48.40;;;26.03;51.38;101317.03;12254695;19;19992;-84
2022/08/22 13:09:03;;;;;;;;;;;27.60;48.40;;;26.14;51.88;101330.09;12253547;19;20322;-84
2022/08/22 13:13:05;;;;;;;;;;;27.60;48.20;;;26.08;51.98;101317.34;12249198;19;19943;-87
2022/08/22 13:17:11;;;;;;;;;;;27.60;48.20;;;26.12;51.43;101316.03;12253267;19;19986;-87
2022/08/22 13:21:16;;;;;;;;;;;27.60;48.20;;;26.20;51.44;101326.69;12249808;19;19911;-87
2022/08/22 13:25:20;;;;;;;;;;;27.70;47.70;;;26.21;51.42;101330.22;12249772;19;19994;-86
2022/08/22 13:29:50;;;;;;;;;;;27.70;48.10;;;26.15;51.23;101315.69;12252536;19;19941;-86
2022/08/22 13:33:59;;;;;;;;;;;27.70;48.30;;;26.24;51.55;101327.19;12249641;19;20002;-86
2022/08/22 13:38:07;;;;;;;;;;;27.70;48.30;;;26.25;51.29;101321.66;12249235;19;19950;-86
2022/08/22 13:42:18;;;;;;;;;;;27.70;48.00;;;25.78;51.33;101239.47;12247524;19;19929;-88
2022/08/22 13:46:24;;;;;;;;;;;27.80;47.60;;;26.34;51.23;101325.16;12248161;19;20333;-87
2022/08/22 13:50:32;;;;;;;;;;;27.80;48.70;;;25.58;50.81;101217.63;12249407;19;19927;-88
2022/08/22 13:54:48;;;;;;;;;;;27.90;47.40;;;26.30;50.86;101329.16;12245564;19;20351;-86
2022/08/22 13:58:55;;;;;;;;;;;27.80;46.90;;;25.60;51.02;101222.81;12247936;19;19919;-86
2022/08/22 14:03:02;;;;;;;;;;;27.90;47.80;;;26.26;50.94;101322.50;12244068;19;20346;-86
2022/08/22 14:07:03;;;;;;;;;;;27.80;47.50;;;26.27;51.03;101324.16;12249502;19;20234;-86
2022/08/22 14:11:17;;;;;;;;;;;27.70;47.50;;;25.83;51.01;101255.88;12244155;19;19982;-89
2022/08/22 14:15:23;;;;;;;;;;;27.70;46.90;;;25.44;50.47;101199.63;12245238;19;20587;-87
2022/08/22 14:19:38;;;;;;;;;;;27.80;47.20;;;25.89;50.73;101273.09;12250829;19;19927;-86
2022/08/22 14:23:41;;;;;;;;;;;27.70;46.10;;;25.85;50.80;101258.41;12246491;19;19919;-87
2022/08/22 14:28:00;;;;;;;;;;;27.70;47.10;;;25.80;50.60;101236.63;12250865;19;19949;-87
2022/08/22 14:32:22;;;;;;;;;;;27.70;47.30;;;26.12;50.91;101285.75;12247808;19;20250;-88
2022/08/22 14:36:44;;;;;;;;;;;27.90;47.20;;;26.22;50.86;101289.03;12249453;19;19925;-88
2022/08/22 14:40:50;;;;;;;;;;;27.70;47.10;;;26.35;50.49;101302.69;12249271;19;19922;-85
2022/08/22 14:45:18;;;;;;;;;;;27.80;47.30;;;26.32;50.36;101288.84;12251294;19;19915;-86
2022/08/22 14:49:19;;;;;;;;;;;27.80;47.60;;;26.38;50.17;101307.72;12250910;19;20842;-87
2022/08/22 14:53:29;;;;;;;;;;;27.80;46.70;;;26.24;50.09;101285.16;12248847;19;19914;-86
2022/08/22 14:57:34;;;;;;;;;;;27.90;47.20;;;26.37;50.37;101300.69;12250740;19;19923;-87
2022/08/22 15:01:55;;;;;;;;;;;27.80;47.10;;;26.36;50.30;101307.06;12245204;19;19946;-87
2022/08/22 15:06:03;;;;;;;;;;;27.90;47.20;;;26.35;50.00;101312.59;12246988;19;19921;-86
2022/08/22 15:10:22;;;;;;;;;;;27.80;47.10;;;26.27;50.42;101292.88;12245203;19;19911;-87
2022/08/22 15:14:36;;;;;;;;;;;27.80;46.80;;;26.37;50.33;101300.69;12244893;19;19911;-86
2022/08/22 15:18:37;;;;;;;;;;;27.80;46.80;;;26.23;50.11;101283.50;12237793;19;19907;-85
2022/08/22 15:22:45;;;;;;;;;;;27.80;46.90;;;26.33;50.14;101306.56;12241007;19;20249;-86
2022/08/22 15:26:54;;;;;;;;;;;27.80;46.80;;;26.22;49.82;101305.09;12244047;19;19918;-85
2022/08/22 15:30:55;;;;;;;;;;;27.80;46.50;;;26.24;49.69;101298.56;12241211;19;20008;-85
2022/08/22 15:35:14;;;;;;;;;;;27.80;46.60;;;26.19;49.52;101297.41;12242086;19;20599;-85
2022/08/22 15:39:29;;;;;;;;;;;27.80;46.60;;;26.07;49.56;101293.47;12245357;19;19926;-85
2022/08/22 15:43:35;;;;;;;;;;;27.70;46.90;;;26.11;49.69;101297.44;12244273;19;19919;-85
2022/08/22 15:47:39;;;;;;;;;;;27.70;46.90;;;26.09;49.68;101307.50;12242182;19;19953;-87
2022/08/22 15:51:58;;;;;;;;;;;27.60;46.40;;;26.09;49.59;101320.91;12245718;19;20373;-86
2022/08/22 15:56:05;;;;;;;;;;;27.60;46.30;;;26.04;49.45;101319.56;12249879;19;19919;-88
2022/08/22 16:00:28;;;;;;;;;;;27.50;46.10;;;26.06;49.85;101322.06;12246801;19;20617;-87
2022/08/22 16:04:39;;;;;;;;;;;27.60;46.20;;;26.03;49.84;101317.91;12248564;19;19919;-87
2022/08/22 16:08:53;;;;;;;;;;;27.60;46.00;;;25.95;49.82;101309.03;12247751;19;20270;-87
2022/08/22 16:13:28;;;;;;;;;;;27.50;46.50;;;25.82;49.54;101299.69;12245357;19;19919;-87
2022/08/22 16:17:29;;;;;;;;;;;27.50;46.40;;;25.89;49.66;101321.25;12244780;19;19944;-87
2022/08/22 16:21:30;;;;;;;;;;;27.40;46.30;;;25.89;49.91;101323.94;12252568;19;19919;-87
2022/08/22 16:25:44;;;;;;;;;;;27.40;46.00;;;25.85;49.65;101324.47;12261893;19;20227;-87
2022/08/22 16:29:45;;;;;;;;;;;27.40;45.90;;;25.82;49.56;101328.28;12259834;19;19915;-86
2022/08/22 16:33:47;;;;;;;;;;;27.40;46.30;;;25.76;49.82;101329.81;12256764;19;19990;-86
2022/08/22 16:37:49;;;;;;;;;;;27.30;46.40;;;25.70;49.34;101317.06;12260896;19;20358;-86
2022/08/22 16:41:53;;;;;;;;;;;27.30;46.40;;;25.66;49.60;101330.97;12252147;19;19929;-86
2022/08/22 16:45:55;;;;;;;;;;;27.30;46.20;;;25.39;49.63;101304.41;12263172;19;19918;-86
2022/08/22 16:49:59;;;;;;;;;;;27.20;46.20;;;25.62;49.37;101335.81;12253645;19;19939;-86
2022/08/22 16:54:12;;;;;;;;;;;27.20;46.10;;;25.54;49.66;101333.97;12256885;19;19919;-87
2022/08/22 16:58:57;;;;;;;;;;;27.10;46.30;;;25.48;49.91;101331.16;12260242;19;19918;-87
2022/08/22 17:03:05;;;;;;;;;;;27.10;45.90;;;25.45;49.45;101342.19;12255152;19;19918;-86
2022/08/22 17:07:42;;;;;;;;;;;27.00;46.00;;;25.36;49.73;101341.34;12259061;19;19939;-86
2022/08/22 17:12:15;;;;;;;;;;;26.90;45.90;;;25.22;49.91;101336.66;12258991;19;19911;-87
2022/08/22 17:16:48;;;;;;;;;;;26.80;45.90;;;25.14;49.25;101342.78;12257207;19;19920;-88
2022/08/22 17:21:20;;;;;;;;;;;26.80;46.00;;;25.14;49.72;101351.66;12258244;19;19940;-91
2022/08/22 17:25:59;;;;;;;;;;;26.70;46.00;;;25.09;49.65;101350.47;12254137;19;19926;-90
2022/08/22 17:30:08;;;;;;;;;;;26.60;46.00;;;24.91;49.57;101337.25;12254490;19;20214;-89
2022/08/22 17:34:28;;;;;;;;;;;26.60;46.00;;;24.91;49.24;101351.44;12252917;19;19927;-89
2022/08/22 17:38:54;;;;;;;;;;;26.60;46.00;;;24.77;49.83;101341.38;12256441;19;19914;-89
2022/08/22 17:43:33;;;;;;;;;;;26.40;46.00;;;24.72;49.61;101336.53;12251077;19;19919;-88
2022/08/22 17:47:59;;;;;;;;;;;26.40;46.10;;;24.68;49.56;101351.22;12257049;19;19919;-88
2022/08/22 17:52:42;;;;;;;;;;;26.30;46.10;;;24.57;49.44;101351.47;12254733;19;19923;-89
2022/08/22 17:56:57;;;;;;;;;;;26.20;46.00;;;24.46;49.70;101341.91;12254469;19;19970;-89
2022/08/22 18:01:06;;;;;;;;;;;26.10;46.00;;;24.46;49.75;101349.09;12254546;19;19953;-88
2022/08/22 18:05:19;;;;;;;;;;;26.10;46.20;;;24.47;49.53;101370.31;12256553;19;19915;-89
2022/08/22 18:09:44;;;;;;;;;;;26.10;46.20;;;24.28;49.31;101368.69;12256796;19;19919;-89
2022/08/22 18:13:57;;;;;;;;;;;26.00;46.10;;;24.27;49.70;101374.19;12254103;19;19914;-89
2022/08/22 18:18:19;;;;;;;;;;;25.90;46.10;;;24.07;49.62;101362.91;12253412;19;19978;-88
2022/08/22 18:22:35;;;;;;;;;;;25.90;46.10;;;24.02;49.64;101371.34;12253865;19;20259;-90
2022/08/22 18:27:04;;;;;;;;;;;25.80;46.30;;;24.04;49.81;101376.56;12257626;19;19923;-88
2022/08/22 18:31:15;;;;;;;;;;;25.70;46.20;;;23.97;49.72;101365.66;12250340;19;20257;-88
2022/08/22 18:35:27;;;;;;;;;;;25.70;46.50;;;24.01;49.62;101377.69;12252434;19;20577;-89
2022/08/22 18:39:34;;;;;;;;;;;25.70;46.50;;;24.04;49.60;101379.22;12251941;19;19922;-89
2022/08/22 18:43:39;;;;;;;;;;;25.90;46.80;;;24.05;49.53;101378.22;12254148;19;19914;-90
2022/08/22 18:47:53;;;;;;;;;;;25.70;46.80;;;24.22;49.97;101397.84;12256391;19;20301;-88
2022/08/22 18:52:06;;;;;;;;;;;25.70;46.80;;;24.19;49.93;101390.97;12246504;19;19914;-91
2022/08/22 18:56:34;;;;;;;;;;;25.70;46.80;;;24.09;49.52;101387.59;12252495;19;19944;-87
2022/08/22 19:01:02;;;;;;;;;;;25.70;46.70;;;23.96;49.49;101376.50;12253215;19;19923;-90
2022/08/22 19:05:45;;;;;;;;;;;25.60;46.70;;;24.00;49.79;101380.50;12252788;19;19907;-88
2022/08/22 19:10:14;;;;;;;;;;;25.60;46.80;;;23.72;50.20;101345.97;12244292;19;19926;-90
2022/08/22 19:14:34;;;;;;;;;;;25.50;46.80;;;23.91;50.12;101389.47;12247367;19;19918;-91